Time;durP1;ratioP1;P1;durP2;ratioP2;P2;SDS_P1;SDS_P2;PMS_P1;PMS_P2;Temp;Humidity;BMP_temperature;BMP_pressure;BME280_temperature;BME280_humidity;BME280_pressure;Samples;Min_cycle;Max_cycle;Signal;HPM_P1;HPM_P2
2023/09/08 00:00:05;;;;;;;13.18;8.77;;;;;;;-143.21;63.47;71834.22;5068545;28;20588;-80
2023/09/08 00:02:32;;;;;;;10.30;8.40;;;;;;;-143.21;63.42;71830.25;5065870;28;20221;-80
2023/09/08 00:05:01;;;;;;;14.98;9.85;;;;;;;-143.21;63.36;71830.25;5065611;28;20221;-80
2023/09/08 00:07:28;;;;;;;13.63;10.07;;;;;;;-143.21;63.43;71824.31;5069088;28;20275;-79
2023/09/08 00:09:55;;;;;;;12.57;10.30;;;;;;;-143.21;63.83;71840.19;5069102;28;20201;-80
2023/09/08 00:12:22;;;;;;;14.00;10.93;;;;;;;-143.21;64.20;71842.16;5068705;28;20997;-79
2023/09/08 00:14:50;;;;;;;13.23;11.07;;;;;;;-143.21;64.45;71846.13;5068284;28;20228;-79
2023/09/08 00:17:17;;;;;;;14.63;11.25;;;;;;;-143.21;65.13;71850.09;5068298;28;20565;-78
2023/09/08 00:19:44;;;;;;;17.30;12.23;;;;;;;-143.21;66.11;71850.09;5068487;28;20201;-79
2023/09/08 00:22:10;;;;;;;16.52;12.13;;;;;;;-143.21;65.95;71856.03;5067962;28;20280;-79
2023/09/08 00:24:37;;;;;;;15.70;11.27;;;;;;;-143.21;65.23;71856.03;5068772;28;20205;-79
2023/09/08 00:27:04;;;;;;;15.02;10.57;;;;;;;-143.21;65.22;71858.03;5068267;28;20201;-79
2023/09/08 00:29:31;;;;;;;12.82;10.25;;;;;;;-143.21;64.81;71856.03;5065266;28;20204;-79
2023/09/08 00:31:59;;;;;;;12.23;9.38;;;;;;;-143.21;64.28;71852.06;5065331;28;20202;-79
2023/09/08 00:34:26;;;;;;;16.80;9.20;;;;;;;-143.21;63.77;71826.28;5068102;28;20221;-79
2023/09/08 00:36:53;;;;;;;15.02;9.50;;;;;;;-143.21;63.48;71814.41;5067845;28;20687;-80
2023/09/08 00:39:19;;;;;;;12.07;9.18;;;;;;;-143.21;63.38;71828.28;5068153;28;20208;-79
2023/09/08 00:41:46;;;;;;;12.35;9.02;;;;;;;-143.21;62.80;71830.25;5068289;28;20196;-81
2023/09/08 00:44:13;;;;;;;17.35;8.73;;;;;;;-143.21;62.83;71846.13;5068092;28;20618;-81
2023/09/08 00:46:40;;;;;;;12.35;8.80;;;;;;;-143.21;62.88;71854.06;5068844;28;20201;-81
2023/09/08 00:49:09;;;;;;;10.05;7.97;;;;;;;-143.21;62.91;71860.00;5067701;28;20204;-81
2023/09/08 00:54:16;;;;;;;12.00;7.32;;;;;;;-143.21;62.41;71867.94;5046807;28;20243;-79
2023/09/08 00:56:43;;;;;;;14.90;7.97;;;;;;;-143.21;62.31;71867.94;5068269;28;20212;-80
2023/09/08 00:59:10;;;;;;;12.15;6.40;;;;;;;-143.21;62.31;71871.91;5068000;28;20202;-80
2023/09/08 01:01:37;;;;;;;9.45;6.82;;;;;;;-143.21;62.28;71883.81;5067875;28;20205;-80
2023/09/08 01:04:05;;;;;;;11.45;6.70;;;;;;;-143.21;61.72;71885.78;5067767;28;20233;-82
2023/09/08 01:06:35;;;;;;;14.88;6.30;;;;;;;-143.21;61.69;71883.81;5068977;28;20208;-82
2023/09/08 01:09:03;;;;;;;8.25;6.70;;;;;;;-143.21;61.29;71883.81;5064462;28;20215;-82
2023/09/08 01:11:31;;;;;;;11.52;6.43;;;;;;;-143.21;61.06;71875.88;5068052;28;20193;-82
2023/09/08 01:13:57;;;;;;;9.15;5.80;;;;;;;-143.21;60.76;71885.78;5064727;28;20208;-81
2023/09/08 01:16:24;;;;;;;9.77;5.53;;;;;;;-143.21;60.67;71875.88;5068021;28;20244;-80
2023/09/08 01:18:53;;;;;;;9.60;6.00;;;;;;;-143.21;60.15;71869.91;5066879;28;20205;-81
2023/09/08 01:21:56;;;;;;;8.77;5.72;;;;;;;-143.21;60.00;71863.97;5067490;28;20216;-79
2023/09/08 01:24:48;;;;;;;11.10;5.60;;;;;;;-143.21;60.15;71867.94;5067690;28;20208;-80
2023/09/08 01:27:17;;;;;;;11.43;6.57;;;;;;;-143.21;60.97;71879.84;5066871;28;20626;-78
2023/09/08 01:29:46;;;;;;;9.20;6.35;;;;;;;-143.21;61.95;71895.69;5068036;28;20255;-78
2023/09/08 01:32:13;;;;;;;9.90;6.18;;;;;;;-143.21;62.35;71897.69;5067841;28;20216;-78
2023/09/08 01:34:40;;;;;;;8.85;6.53;;;;;;;-143.21;62.43;71895.69;5067856;28;20225;-80
2023/09/08 01:37:07;;;;;;;9.90;6.28;;;;;;;-143.21;62.62;71891.72;5067190;28;20198;-78
2023/09/08 01:39:35;;;;;;;10.35;6.50;;;;;;;-143.21;62.51;71881.81;5066989;28;20573;-81
2023/09/08 01:42:02;;;;;;;8.40;5.85;;;;;;;-143.21;63.11;71895.69;5070059;28;20663;-79
2023/09/08 01:44:30;;;;;;;13.85;7.10;;;;;;;-143.21;63.01;71881.81;5072286;28;20395;-81
2023/09/08 01:46:58;;;;;;;9.57;6.40;;;;;;;-143.21;63.09;71881.81;5071909;28;20204;-80
2023/09/08 01:49:24;;;;;;;12.80;6.85;;;;;;;-143.21;63.36;71881.81;5071459;28;20209;-80
2023/09/08 01:51:51;;;;;;;9.75;6.88;;;;;;;-143.21;63.41;71887.78;5071455;28;20212;-80
2023/09/08 01:54:18;;;;;;;8.35;6.55;;;;;;;-143.21;63.68;71887.78;5071099;28;20201;-79
2023/09/08 01:56:45;;;;;;;10.15;6.63;;;;;;;-143.21;63.79;71875.88;5070905;28;20212;-79
2023/09/08 01:59:18;;;;;;;11.63;6.95;;;;;;;-143.21;63.41;71869.91;5070817;28;20251;-79
2023/09/08 02:01:46;;;;;;;11.45;6.90;;;;;;;-143.21;63.42;71867.94;5071401;28;20280;-79
2023/09/08 02:04:12;;;;;;;10.25;6.57;;;;;;;-143.21;63.63;71875.88;5075493;28;20241;-79
2023/09/08 02:06:39;;;;;;;9.48;6.45;;;;;;;-143.21;64.20;71895.69;5073050;28;20278;-79
2023/09/08 02:09:06;;;;;;;8.90;6.45;;;;;;;-143.21;64.75;71901.66;5072215;28;20212;-80
2023/09/08 02:11:33;;;;;;;9.80;6.95;;;;;;;-143.21;65.14;71915.53;5072602;28;20201;-79
2023/09/08 02:14:00;;;;;;;10.57;6.82;;;;;;;-143.21;65.40;71909.56;5072987;28;20609;-79
2023/09/08 02:16:28;;;;;;;11.95;7.18;;;;;;;-143.21;65.73;71921.47;5071745;28;20226;-80
2023/09/08 02:18:56;;;;;;;8.52;7.00;;;;;;;-143.21;65.82;71921.47;5071749;28;20283;-82
2023/09/08 02:21:23;;;;;;;13.38;7.15;;;;;;;-143.21;65.97;71911.56;5070849;28;20210;-81
2023/09/08 02:23:50;;;;;;;9.80;7.28;;;;;;;-143.21;66.35;71921.47;5071114;28;20226;-81
2023/09/08 02:26:17;;;;;;;13.27;6.72;;;;;;;-143.21;66.72;71911.56;5071535;28;20198;-80
2023/09/08 02:28:43;;;;;;;13.27;6.93;;;;;;;-143.21;66.28;71905.63;5071110;28;20225;-81
2023/09/08 02:31:11;;;;;;;11.93;7.45;;;;;;;-143.21;66.67;71899.66;5071679;28;20232;-81
2023/09/08 02:33:38;;;;;;;11.98;7.25;;;;;;;-143.21;66.85;71901.66;5070780;28;20212;-80
2023/09/08 02:36:06;;;;;;;12.70;7.47;;;;;;;-143.21;67.02;71905.63;5070400;28;20229;-80
2023/09/08 02:38:33;;;;;;;13.57;7.80;;;;;;;-143.21;67.34;71907.59;5070519;28;20598;-80
2023/09/08 02:41:00;;;;;;;13.02;7.63;;;;;;;-143.21;67.51;71909.56;5070943;28;20208;-80
2023/09/08 02:43:28;;;;;;;9.38;7.20;;;;;;;-143.21;67.56;71917.50;5070098;28;20204;-80
2023/09/08 02:45:54;;;;;;;12.38;7.25;;;;;;;-143.21;67.87;71921.47;5070744;28;20201;-81
2023/09/08 02:48:21;;;;;;;10.35;7.40;;;;;;;-143.21;68.22;71927.44;5071137;28;20217;-81
2023/09/08 02:50:48;;;;;;;12.00;7.82;;;;;;;-143.21;68.45;71931.38;5071427;28;20213;-79
2023/09/08 02:53:16;;;;;;;12.02;7.65;;;;;;;-143.21;68.83;71929.41;5069542;28;20664;-79
2023/09/08 02:55:43;;;;;;;11.27;7.45;;;;;;;-143.21;69.19;71937.34;5070411;28;20221;-78
2023/09/08 02:58:09;;;;;;;12.23;7.95;;;;;;;-143.21;69.45;71943.28;5069606;28;20206;-79
2023/09/08 03:00:36;;;;;;;10.13;8.07;;;;;;;-143.21;69.55;71939.31;5070836;28;20205;-78
2023/09/08 03:03:03;;;;;;;11.00;7.88;;;;;;;-143.21;69.21;71911.56;5069860;28;20202;-79
2023/09/08 03:05:32;;;;;;;12.40;7.78;;;;;;;-143.21;68.42;71883.81;5059524;28;20225;-79
2023/09/08 03:07:59;;;;;;;15.10;8.40;;;;;;;-143.21;68.19;71889.75;5064008;28;20258;-79
2023/09/08 03:10:28;;;;;;;18.48;8.68;;;;;;;-143.21;68.38;71899.66;5068864;28;20209;-78
2023/09/08 03:12:55;;;;;;;13.55;7.75;;;;;;;-143.21;68.93;71913.53;5067849;28;20468;-78
2023/09/08 03:15:22;;;;;;;12.80;8.90;;;;;;;-143.21;69.62;71929.41;5068901;28;20229;-79
2023/09/08 03:17:48;;;;;;;11.50;8.25;;;;;;;-143.21;70.00;71941.31;5068803;28;20242;-79
2023/09/08 03:20:15;;;;;;;10.82;8.00;;;;;;;-143.21;70.58;71951.22;5067752;28;20209;-79
2023/09/08 03:22:42;;;;;;;12.52;8.50;;;;;;;-143.21;70.76;71961.13;5068752;28;20634;-79
2023/09/08 03:25:09;;;;;;;11.25;8.13;;;;;;;-143.21;70.97;71963.13;5068831;28;20201;-79
2023/09/08 03:27:38;;;;;;;11.73;8.70;;;;;;;-143.21;71.18;71969.06;5068910;28;20197;-79
2023/09/08 03:30:06;;;;;;;14.50;8.75;;;;;;;-143.21;71.11;71971.06;5068515;28;20211;-79
2023/09/08 03:32:33;;;;;;;11.68;8.52;;;;;;;-143.21;71.58;71971.06;5069290;28;20664;-79
2023/09/08 03:34:59;;;;;;;12.52;8.52;;;;;;;-143.21;71.94;71986.91;5071288;28;20216;-80
2023/09/08 03:37:27;;;;;;;15.15;9.27;;;;;;;-143.21;72.05;71992.88;5069626;28;20205;-79
2023/09/08 03:39:54;;;;;;;15.43;8.73;;;;;;;-143.21;72.31;71992.88;5069224;28;20292;-80
2023/09/08 03:42:20;;;;;;;12.55;9.07;;;;;;;-143.21;72.00;71990.88;5068255;28;20274;-80
2023/09/08 03:44:48;;;;;;;13.77;8.30;;;;;;;-143.21;72.18;71988.91;5071328;28;20605;-78
2023/09/08 03:47:15;;;;;;;11.88;8.73;;;;;;;-143.21;71.99;71984.94;5067323;28;20208;-78
2023/09/08 03:49:42;;;;;;;15.65;9.80;;;;;;;-143.21;71.71;71986.91;5068657;28;20212;-79
2023/09/08 03:52:09;;;;;;;15.00;9.68;;;;;;;-143.21;71.81;71986.91;5068946;28;20652;-79
2023/09/08 03:54:37;;;;;;;14.20;8.70;;;;;;;-143.21;72.16;71996.81;5069674;28;20611;-78
2023/09/08 03:57:04;;;;;;;14.00;9.35;;;;;;;-143.21;72.20;71994.84;5068731;28;20221;-79
2023/09/08 03:59:31;;;;;;;13.73;8.75;;;;;;;-143.21;72.11;71994.84;5056840;28;20201;-78
2023/09/08 04:02:00;;;;;;;13.43;9.02;;;;;;;-143.21;72.19;71996.81;5066469;28;20288;-81
2023/09/08 04:04:27;;;;;;;12.68;9.23;;;;;;;-143.21;72.07;71992.88;5065996;28;20253;-79
2023/09/08 04:06:54;;;;;;;16.15;9.43;;;;;;;-143.21;72.39;72008.72;5067763;28;20590;-80
2023/09/08 04:09:21;;;;;;;15.32;9.95;;;;;;;-143.21;72.35;72002.78;5067134;28;20752;-80
2023/09/08 04:11:48;;;;;;;15.35;9.27;;;;;;;-143.21;72.84;72018.63;5067594;28;20583;-80
2023/09/08 04:14:15;;;;;;;13.57;9.30;;;;;;;-143.21;72.90;72018.63;5069236;28;20680;-80
2023/09/08 04:16:41;;;;;;;15.13;9.85;;;;;;;-143.21;73.04;72018.63;5067769;28;20225;-80
2023/09/08 04:19:10;;;;;;;13.57;9.75;;;;;;;-143.21;73.12;72018.63;5068992;28;20210;-80
2023/09/08 04:21:37;;;;;;;14.07;9.68;;;;;;;-143.21;73.42;72028.56;5068669;28;20664;-80
2023/09/08 04:24:04;;;;;;;15.90;9.73;;;;;;;-143.21;73.65;72036.50;5068694;28;20209;-80
2023/09/08 04:26:31;;;;;;;17.27;9.93;;;;;;;-143.21;73.88;72040.44;5069283;28;20672;-80
2023/09/08 04:28:58;;;;;;;15.07;10.57;;;;;;;-143.21;74.09;72044.41;5068814;28;20606;-80
2023/09/08 04:31:25;;;;;;;12.43;9.57;;;;;;;-143.21;74.17;72050.38;5068818;28;20208;-80
2023/09/08 04:33:53;;;;;;;17.80;10.77;;;;;;;-143.21;74.25;72054.34;5069257;28;20216;-80
2023/09/08 04:36:21;;;;;;;17.60;10.63;;;;;;;-143.21;74.55;72062.25;5068601;28;20236;-80
2023/09/08 04:38:48;;;;;;;19.35;10.68;;;;;;;-143.21;74.51;72058.31;5068197;28;20662;-79
2023/09/08 04:41:15;;;;;;;18.88;10.88;;;;;;;-143.21;74.61;72040.44;5067574;28;20198;-79
2023/09/08 04:43:41;;;;;;;22.00;11.95;;;;;;;-143.21;74.31;72048.38;5068701;28;20201;-78
2023/09/08 04:46:08;;;;;;;22.63;12.50;;;;;;;-143.21;74.02;72048.38;5067925;28;20201;-78
2023/09/08 04:48:35;;;;;;;20.92;11.70;;;;;;;-143.21;74.02;72046.41;5067805;28;20599;-79
2023/09/08 04:51:02;;;;;;;25.27;13.60;;;;;;;-143.21;73.92;72044.41;5068011;28;20197;-78
2023/09/08 04:53:30;;;;;;;38.85;15.07;;;;;;;-143.21;74.30;72054.34;5068619;28;20198;-80
2023/09/08 04:55:57;;;;;;;29.10;14.82;;;;;;;-143.21;74.49;72054.34;5068346;28;20229;-79
2023/09/08 04:58:23;;;;;;;24.48;13.40;;;;;;;-143.21;74.74;72062.25;5068399;28;20209;-79
2023/09/08 05:00:52;;;;;;;25.92;12.52;;;;;;;-143.21;74.90;72066.22;5066613;28;20225;-79
2023/09/08 05:03:19;;;;;;;18.55;11.85;;;;;;;-143.21;74.92;72064.25;5067898;28;20309;-79
2023/09/08 05:05:46;;;;;;;21.58;12.73;;;;;;;-143.21;74.80;72062.25;5067657;28;20225;-79
2023/09/08 05:08:13;;;;;;;19.02;11.57;;;;;;;-143.21;75.95;72074.16;5067765;28;20256;-78
2023/09/08 05:10:41;;;;;;;21.83;12.10;;;;;;;-143.21;76.09;72070.19;5066750;28;20631;-79
2023/09/08 05:13:08;;;;;;;18.65;11.32;;;;;;;-143.21;76.18;72066.22;5067240;28;20197;-78
2023/09/08 05:15:34;;;;;;;21.88;12.02;;;;;;;-143.21;75.94;72048.38;5067448;28;20193;-78
2023/09/08 05:18:01;;;;;;;19.67;11.95;;;;;;;-143.21;75.04;72020.63;5072511;28;20227;-78
2023/09/08 05:20:33;;;;;;;20.90;10.85;;;;;;;-143.21;74.41;72002.78;5072044;28;20322;-78
2023/09/08 05:23:02;;;;;;;17.67;10.65;;;;;;;-143.21;74.54;72006.75;5068578;28;20207;-78
2023/09/08 05:25:28;;;;;;;20.95;11.38;;;;;;;-143.21;74.65;72010.72;5068257;28;20197;-79
2023/09/08 05:28:02;;;;;;;18.92;10.75;;;;;;;-143.21;74.58;72008.72;5071409;28;20582;-79
2023/09/08 05:30:30;;;;;;;14.85;9.98;;;;;;;-143.21;74.90;72012.69;5069012;28;20209;-79
2023/09/08 05:32:57;;;;;;;12.95;10.25;;;;;;;-143.21;74.61;72012.69;5071492;28;20207;-79
2023/09/08 05:35:24;;;;;;;16.30;10.57;;;;;;;-143.21;74.75;72010.72;5071441;28;20208;-79
2023/09/08 05:37:51;;;;;;;16.02;9.73;;;;;;;-143.21;74.22;72002.78;5070728;28;20232;-78
2023/09/08 05:40:16;;;;;;;17.38;10.23;;;;;;;-143.21;73.76;71996.81;5070620;28;20596;-78
2023/09/08 05:42:43;;;;;;;11.50;9.27;;;;;;;-143.21;72.87;71994.84;5070471;28;20193;-78
2023/09/08 05:45:11;;;;;;;15.95;9.13;;;;;;;-143.21;71.63;71986.91;5070710;28;20640;-78
2023/09/08 05:47:38;;;;;;;13.00;9.02;;;;;;;-143.21;70.80;71977.00;5070584;28;20668;-78
2023/09/08 05:50:06;;;;;;;10.30;8.77;;;;;;;-143.21;69.39;71941.31;5070814;28;20673;-78
2023/09/08 05:52:33;;;;;;;12.82;7.88;;;;;;;-143.21;67.56;71909.56;5070838;28;20201;-78
2023/09/08 05:55:00;;;;;;;13.05;7.63;;;;;;;-143.21;66.91;71899.66;5073235;28;20207;-78
2023/09/08 05:57:27;;;;;;;10.35;7.80;;;;;;;-143.21;67.13;71897.69;5071128;28;20217;-78
2023/09/08 05:59:57;;;;;;;17.58;8.57;;;;;;;-143.21;67.79;71907.59;5070603;28;20217;-79
2023/09/08 06:02:25;;;;;;;15.02;8.13;;;;;;;-143.21;67.57;71919.50;5070230;28;20577;-78
2023/09/08 06:04:51;;;;;;;13.70;8.50;;;;;;;-143.21;67.94;71917.50;5070054;28;20801;-79
2023/09/08 06:07:18;;;;;;;12.68;7.75;;;;;;;-143.21;67.68;71917.50;5071451;28;20292;-78
2023/09/08 06:09:45;;;;;;;15.70;7.82;;;;;;;-143.21;67.27;71911.56;5070254;28;20208;-78
2023/09/08 06:12:12;;;;;;;14.25;6.97;;;;;;;-143.21;65.64;71909.56;5070461;28;20204;-78
2023/09/08 06:14:38;;;;;;;14.18;6.65;;;;;;;-143.21;64.87;71907.59;5069965;28;20213;-78
2023/09/08 06:17:05;;;;;;;10.00;6.60;;;;;;;-143.21;64.14;71901.66;5070483;28;20225;-78
2023/09/08 06:19:33;;;;;;;10.70;6.60;;;;;;;-143.21;63.11;71893.72;5070538;28;20574;-78
2023/09/08 06:22:00;;;;;;;9.75;6.35;;;;;;;-143.21;62.36;71883.81;5067701;28;20207;-78
2023/09/08 06:24:27;;;;;;;11.38;6.32;;;;;;;-143.21;61.76;71883.81;5070937;28;20201;-78
2023/09/08 06:26:54;;;;;;;8.30;5.65;;;;;;;-143.21;60.19;71842.16;5069883;28;20197;-78
2023/09/08 06:29:21;;;;;;;10.10;5.97;;;;;;;-143.21;59.34;71812.41;5070939;28;20208;-86
2023/09/08 06:31:48;;;;;;;11.95;6.13;;;;;;;-143.21;59.36;71810.44;5070692;28;20205;-86
2023/09/08 06:34:15;;;;;;;11.52;6.38;;;;;;;-143.21;59.36;71816.38;5070811;28;20209;-86
2023/09/08 06:36:43;;;;;;;12.70;6.20;;;;;;;-143.21;58.81;71820.34;5070297;28;20612;-86
2023/09/08 06:39:10;;;;;;;12.20;5.60;;;;;;;-143.21;59.00;71834.22;5071849;28;20288;-88
2023/09/08 06:41:38;;;;;;;12.30;5.20;;;;;;;-143.21;58.32;71836.22;5073393;28;20215;-93
2023/09/08 06:44:06;;;;;;;9.18;5.43;;;;;;;-143.21;58.37;71828.28;5075746;28;20201;-91
2023/09/08 06:46:33;;;;;;;12.95;5.25;;;;;;;-143.21;57.55;71814.41;5074210;28;20193;-92
2023/09/08 06:49:03;;;;;;;14.60;5.82;;;;;;;-143.21;57.28;71810.44;5076644;28;20197;-94
2023/09/08 06:51:30;;;;;;;10.27;5.00;;;;;;;-143.21;57.18;71808.44;5072145;28;20254;-83
2023/09/08 06:53:59;;;;;;;7.70;4.93;;;;;;;-143.21;56.76;71796.56;5071333;28;20244;-84
2023/09/08 06:56:27;;;;;;;10.00;4.53;;;;;;;-143.21;56.63;71788.63;5069956;28;20221;-83
2023/09/08 06:58:54;;;;;;;9.18;5.05;;;;;;;-143.21;56.07;71770.78;5069775;28;20292;-83
2023/09/08 07:01:24;;;;;;;8.27;5.00;;;;;;;-143.21;55.68;71766.81;5071061;28;20209;-84
2023/09/08 07:03:51;;;;;;;10.43;5.18;;;;;;;-143.21;55.58;71750.94;5070288;28;20619;-85
2023/09/08 07:06:23;;;;;;;7.40;4.70;;;;;;;-143.21;53.72;71735.09;5069760;28;20578;-85
2023/09/08 07:08:50;;;;;;;11.82;4.45;;;;;;;-143.21;53.50;71725.16;5069392;28;20218;-84
2023/09/08 07:11:18;;;;;;;7.07;4.45;;;;;;;-143.21;53.62;71715.25;5070491;28;20716;-83
2023/09/08 07:13:45;;;;;;;9.18;4.50;;;;;;;-143.21;53.72;71705.34;5069297;28;20209;-84
2023/09/08 07:16:12;;;;;;;7.15;4.63;;;;;;;-143.21;52.51;71711.28;5069327;28;20291;-83
2023/09/08 07:18:39;;;;;;;7.18;4.63;;;;;;;-143.21;52.30;71701.38;5068398;28;20204;-82
2023/09/08 07:21:06;;;;;;;11.80;4.63;;;;;;;-143.21;51.96;71699.41;5069260;28;20914;-83
2023/09/08 07:23:35;;;;;;;10.63;5.10;;;;;;;-143.21;51.89;71689.47;5068707;28;20209;-83
2023/09/08 07:26:01;;;;;;;9.10;4.20;;;;;;;-143.21;51.91;71691.47;5069624;28;20251;-83
2023/09/08 07:28:30;;;;;;;6.07;4.25;;;;;;;-143.21;51.19;71673.63;5066236;28;20209;-83
2023/09/08 07:31:02;;;;;;;8.45;4.47;;;;;;;-143.21;51.23;71659.75;5068464;28;20201;-83
2023/09/08 07:33:29;;;;;;;8.30;5.80;;;;;;;-143.21;51.43;71657.75;5065549;28;20228;-82
2023/09/08 07:35:55;;;;;;;7.28;4.32;;;;;;;-143.21;51.26;71645.88;5068937;28;20447;-85
2023/09/08 07:38:22;;;;;;;10.38;4.40;;;;;;;-143.21;50.18;71637.94;5069694;28;20605;-84
2023/09/08 07:40:49;;;;;;;9.93;4.30;;;;;;;-143.21;50.07;71622.06;5068462;28;20209;-84
2023/09/08 07:43:16;;;;;;;5.97;4.65;;;;;;;-143.21;50.54;71604.22;5068795;28;20247;-84
2023/09/08 07:45:44;;;;;;;11.05;4.43;;;;;;;-143.21;49.67;71592.31;5067998;28;20240;-85
2023/09/08 07:48:12;;;;;;;5.35;4.15;;;;;;;-143.21;49.78;71586.38;5069467;28;20201;-88
2023/09/08 07:50:39;;;;;;;11.05;4.57;;;;;;;-143.21;49.68;71582.41;5068934;28;20215;-89
2023/09/08 07:53:05;;;;;;;10.75;3.95;;;;;;;-143.21;49.29;71576.47;5068858;28;20640;-86
2023/09/08 07:55:32;;;;;;;5.15;4.35;;;;;;;-143.21;49.17;71572.50;5069731;28;20212;-87
2023/09/08 07:58:03;;;;;;;5.93;4.40;;;;;;;-143.21;47.92;71564.56;5069591;28;20225;-85
2023/09/08 08:00:30;;;;;;;10.15;5.00;;;;;;;-143.21;48.29;71562.59;5067451;28;20284;-82
2023/09/08 08:02:59;;;;;;;10.18;5.07;;;;;;;-143.21;49.83;71522.94;5069826;28;20201;-90
2023/09/08 08:05:26;;;;;;;7.80;4.85;;;;;;;-143.21;48.10;71497.16;5069753;28;20334;-88
2023/09/08 08:07:53;;;;;;;6.18;4.45;;;;;;;-143.21;47.37;71497.16;5070152;28;20267;-79
2023/09/08 08:10:20;;;;;;;6.38;4.53;;;;;;;-143.21;46.95;71491.22;5069500;28;20213;-80
2023/09/08 08:12:55;;;;;;;8.35;4.90;;;;;;;-143.21;47.11;71487.25;5069417;28;20205;-79
2023/09/08 08:15:36;;;;;;;9.80;4.43;;;;;;;-143.21;46.74;71487.25;5068999;28;20205;-80
2023/09/08 08:18:05;;;;;;;9.73;5.78;;;;;;;-143.21;47.18;71491.22;5068835;28;20228;-80
2023/09/08 08:20:34;;;;;;;7.22;4.88;;;;;;;-143.21;47.50;71493.19;5070163;28;20200;-80
2023/09/08 08:23:01;;;;;;;11.77;4.55;;;;;;;-143.21;47.10;71487.25;5070478;28;20236;-81
2023/09/08 08:25:28;;;;;;;7.65;4.30;;;;;;;-143.21;46.40;71481.28;5066999;28;20284;-81
2023/09/08 08:27:56;;;;;;;7.45;4.20;;;;;;;-143.21;46.33;71479.31;5069731;28;20233;-79
2023/09/08 08:30:23;;;;;;;8.35;4.63;;;;;;;-143.21;46.67;71467.41;5070409;28;20216;-80
2023/09/08 08:32:51;;;;;;;5.28;4.40;;;;;;;-143.21;46.71;71457.50;5068021;28;20209;-81
2023/09/08 08:35:19;;;;;;;9.98;4.60;;;;;;;-143.21;46.90;71453.53;5069000;28;20201;-82
2023/09/08 08:37:47;;;;;;;11.13;4.70;;;;;;;-143.21;46.91;71447.59;5063673;28;20746;-90
2023/09/08 08:40:14;;;;;;;5.97;4.70;;;;;;;-143.21;47.35;71445.59;5076785;28;20200;-88
2023/09/08 08:42:41;;;;;;;11.85;4.78;;;;;;;-143.21;47.45;71445.59;5076805;28;20216;-87
2023/09/08 08:45:09;;;;;;;10.52;4.30;;;;;;;-143.21;47.26;71431.72;5076452;28;20224;-90
2023/09/08 08:47:36;;;;;;;10.10;4.60;;;;;;;-143.21;46.87;71437.69;5074603;28;20204;-89
2023/09/08 08:50:04;;;;;;;7.85;4.78;;;;;;;-143.21;47.13;71437.69;5072940;28;20651;-91
2023/09/08 08:52:33;;;;;;;6.63;4.63;;;;;;;-143.21;46.58;71429.75;5070284;28;20587;-93
2023/09/08 08:55:01;;;;;;;6.63;4.15;;;;;;;-143.21;46.32;71425.78;5079159;28;20197;-91
2023/09/08 08:57:28;;;;;;;7.70;4.57;;;;;;;-143.21;46.17;71431.72;5078910;28;20236;-90
2023/09/08 08:59:55;;;;;;;6.70;4.30;;;;;;;-143.21;46.75;71429.75;5072321;28;20232;-89
2023/09/08 09:02:23;;;;;;;9.27;4.70;;;;;;;-143.21;46.74;71427.75;5069194;28;20198;-88
2023/09/08 09:04:50;;;;;;;8.48;4.47;;;;;;;-143.21;46.74;71419.84;5070967;28;20291;-85
2023/09/08 09:07:20;;;;;;;7.30;4.88;;;;;;;-143.21;45.40;71407.94;5071328;28;20201;-86
2023/09/08 09:09:50;;;;;;;8.52;4.00;;;;;;;-143.21;45.23;71403.97;5069942;28;20204;-85
2023/09/08 09:12:17;;;;;;;10.15;4.20;;;;;;;-143.21;44.85;71403.97;5069397;28;20202;-86
2023/09/08 09:14:47;;;;;;;6.93;4.28;;;;;;;-143.21;44.64;71409.91;5065105;28;20208;-86
2023/09/08 09:17:15;;;;;;;7.43;4.43;;;;;;;-143.21;44.90;71413.88;5067974;28;20233;-85
2023/09/08 09:19:42;;;;;;;8.50;4.40;;;;;;;-143.21;45.23;71421.81;5069125;28;20200;-87
2023/09/08 09:22:09;;;;;;;5.18;4.10;;;;;;;-143.21;45.65;71425.78;5069069;28;20200;-85
2023/09/08 09:24:40;;;;;;;8.52;4.35;;;;;;;-143.21;45.64;71429.75;5069068;28;20204;-87
2023/09/08 09:27:09;;;;;;;8.00;4.57;;;;;;;-143.21;45.77;71417.84;5070609;28;20664;-87
2023/09/08 09:29:45;;;;;;;7.38;4.40;;;;;;;-143.21;45.76;71405.94;5069022;28;20212;-87
2023/09/08 09:32:12;;;;;;;4.95;4.32;;;;;;;-143.21;45.32;71419.84;5069572;28;20628;-88
2023/09/08 09:34:49;;;;;;;6.78;4.70;;;;;;;-143.21;45.86;71411.91;5069025;28;20213;-86
2023/09/08 09:37:15;;;;;;;7.05;4.57;;;;;;;-143.21;45.94;71400.00;5069325;28;20217;-87
2023/09/08 09:39:42;;;;;;;8.40;4.45;;;;;;;-143.21;46.06;71396.03;5068694;28;20212;-86
2023/09/08 09:42:10;;;;;;;8.75;4.93;;;;;;;-143.21;46.02;71380.19;5067163;28;20216;-86
2023/09/08 09:44:37;;;;;;;6.25;4.55;;;;;;;-143.21;45.94;71382.16;5069405;28;20212;-85
2023/09/08 09:47:05;;;;;;;8.20;5.18;;;;;;;-143.21;45.46;71370.28;5069957;28;20221;-85
2023/09/08 09:49:43;;;;;;;6.53;4.20;;;;;;;-143.21;45.38;71354.41;5072040;28;20288;-84
2023/09/08 09:52:12;;;;;;;5.30;4.25;;;;;;;-143.21;44.75;71332.59;5067194;28;20193;-86
2023/09/08 09:54:40;;;;;;;9.77;4.40;;;;;;;-143.21;45.03;71324.66;5066521;28;20202;-86
2023/09/08 09:57:07;;;;;;;10.68;4.35;;;;;;;-143.21;44.85;71328.63;5067301;28;20205;-86
2023/09/08 09:59:41;;;;;;;8.05;4.45;;;;;;;-143.21;45.52;71328.63;5073041;28;20210;-85
2023/09/08 10:02:13;;;;;;;10.98;4.75;;;;;;;-143.21;45.20;71334.59;5069746;28;20197;-89
2023/09/08 10:04:41;;;;;;;5.60;4.38;;;;;;;-143.21;45.95;71330.63;5071657;28;20221;-90
2023/09/08 10:07:08;;;;;;;8.93;5.03;;;;;;;-143.21;46.76;71320.69;5073199;28;20213;-88
2023/09/08 10:09:37;;;;;;;12.75;4.93;;;;;;;-143.21;46.00;71316.75;5072656;28;20204;-87
2023/09/08 10:12:06;;;;;;;16.13;4.93;;;;;;;-143.21;45.66;71308.81;5073627;28;20198;-87
2023/09/08 10:14:36;;;;;;;8.20;4.60;;;;;;;-143.21;45.24;71308.81;5072996;28;20598;-87
2023/09/08 10:17:09;;;;;;;6.78;4.45;;;;;;;-143.21;45.56;71269.16;5070514;28;20202;-88
2023/09/08 10:19:41;;;;;;;8.60;4.40;;;;;;;-143.21;45.09;71229.50;5072932;28;20256;-87
2023/09/08 10:22:12;;;;;;;7.07;4.65;;;;;;;-143.21;44.34;71219.59;5077170;28;20256;-91
2023/09/08 10:24:42;;;;;;;9.60;4.70;;;;;;;-143.21;44.21;71227.53;5074712;28;20302;-89
2023/09/08 10:27:10;;;;;;;6.32;4.70;;;;;;;-143.21;44.88;71263.22;5073819;28;20201;-91
2023/09/08 10:29:40;;;;;;;9.75;4.70;;;;;;;-143.21;45.19;71265.19;5074158;28;20206;-91
2023/09/08 10:32:10;;;;;;;9.63;4.90;;;;;;;-143.21;45.43;71261.22;5075212;28;20205;-92
2023/09/08 10:34:41;;;;;;;8.32;4.53;;;;;;;-143.21;45.31;71229.50;5073300;28;20205;-92
2023/09/08 10:37:20;;;;;;;10.20;4.80;;;;;;;-143.21;44.76;71201.75;5073830;28;20202;-91
2023/09/08 10:39:47;;;;;;;8.20;4.80;;;;;;;-143.21;44.69;71191.84;5073947;28;20197;-91
2023/09/08 10:42:40;;;;;;;6.60;4.82;;;;;;;-143.21;44.38;71191.84;5080890;28;20285;-92
2023/09/08 10:45:16;;;;;;;10.30;4.97;;;;;;;-143.21;44.36;71207.69;5078196;28;20208;-88
2023/09/08 10:48:00;;;;;;;7.72;4.75;;;;;;;-143.21;44.88;71215.63;5077481;28;20427;-88
2023/09/08 10:50:31;;;;;;;6.82;4.82;;;;;;;-143.21;44.61;71191.84;5070936;28;20657;-80
2023/09/08 10:53:14;;;;;;;9.32;4.82;;;;;;;-143.21;44.80;71150.22;5070075;28;20205;-82
2023/09/08 10:55:47;;;;;;;10.32;4.70;;;;;;;-143.21;43.70;71100.66;5068536;28;20733;-78
2023/09/08 10:58:32;;;;;;;5.45;4.22;;;;;;;-143.21;43.30;71088.75;5056252;28;20218;-78
2023/09/08 11:01:04;;;;;;;5.90;4.13;;;;;;;-143.21;42.80;71098.66;5069094;28;20201;-77
2023/09/08 11:03:49;;;;;;;5.72;4.30;;;;;;;-143.21;42.85;71084.78;5066223;28;20295;-79
2023/09/08 11:06:22;;;;;;;7.53;4.50;;;;;;;-143.21;42.89;71092.72;5067503;28;20200;-90
2023/09/08 11:09:14;;;;;;;5.72;4.40;;;;;;;-143.21;42.62;71084.78;5076668;28;20287;-89
2023/09/08 11:11:47;;;;;;;5.07;4.28;;;;;;;-143.21;42.31;71094.69;5073632;28;20285;-92
2023/09/08 11:14:17;;;;;;;9.45;4.88;;;;;;;-143.21;42.61;71118.50;5073134;28;20197;-91
2023/09/08 11:16:44;;;;;;;6.32;4.40;;;;;;;-143.21;42.82;71096.69;5072937;28;20201;-90
2023/09/08 11:22:00;;;;;;;5.47;4.63;;;;;;;-143.21;42.02;71001.53;5067502;28;20212;-79